This is the latest recevied weather packets stored in our database for station/object OK1FET-5. If no packets are shown the sender has not sent any weather packets the latest 1 day(s).
| Time | Temp. | Humidity | Pressure | Rain* | Wind** | Luminosity | Snow |
|---|---|---|---|---|---|---|---|
| 1777991928 | 25.56° C | 33% | 1005.7 hPa | - | 2.24 m/s, 138° | - | - |
| 1777991633 | 26.11° C | 33% | 1005.6 hPa | - | 2.24 m/s, 125° | - | - |
| 1777991337 | 26.11° C | 33% | 1005.7 hPa | - | 3.13 m/s, 128° | - | - |
| 1777991041 | 26.11° C | 33% | 1005.7 hPa | - | 3.58 m/s, 159° | - | - |
| 1777990746 | 26.67° C | 33% | 1005.8 hPa | - | 3.13 m/s, 153° | - | - |
| 1777990450 | 26.67° C | 32% | 1005.8 hPa | - | 3.58 m/s, 154° | - | - |
| 1777990154 | 27.22° C | 33% | 1005.8 hPa | - | 2.68 m/s, 145° | - | - |
| 1777989858 | 27.22° C | 32% | 1005.9 hPa | - | 3.58 m/s, 139° | - | - |
| 1777989570 | 27.78° C | 32% | 1005.9 hPa | - | 2.24 m/s, 145° | - | - |
| 1777989266 | 27.22° C | 32% | 1005.9 hPa | - | 3.13 m/s, 114° | - | - |
| 1777988970 | 27.78° C | 33% | 1006 hPa | - | 2.68 m/s, 135° | - | - |
| 1777988674 | 27.78° C | 34% | 1006 hPa | - | 2.68 m/s, 136° | - | - |
| 1777988378 | 28.89° C | 32% | 1006 hPa | - | 2.24 m/s, 133° | - | - |
| 1777988082 | 28.89° C | 33% | 1006.1 hPa | - | 2.24 m/s, 119° | - | - |
| 1777987786 | 29.44° C | 31% | 1006.1 hPa | - | 1.79 m/s, 81° | - | - |
| 1777987490 | 29.44° C | 31% | 1006.1 hPa | - | 2.24 m/s, 127° | - | - |
| 1777987193 | 29.44° C | 33% | 1006.2 hPa | - | 1.34 m/s, 120° | - | - |
| 1777986898 | 28.89° C | 33% | 1006.2 hPa | - | 1.79 m/s, 88° | - | - |
| 1777986602 | 28.89° C | 33% | 1006.3 hPa | - | 1.34 m/s, 134° | - | - |
| 1777986009 | 28.89° C | 33% | 1006.4 hPa | - | 2.24 m/s, 90° | - | - |
| 1777985713 | 28.89° C | 31% | 1006.3 hPa | - | 1.79 m/s, 65° | - | - |
| 1777985417 | 28.89° C | 33% | 1006.3 hPa | - | 1.79 m/s, 102° | - | - |
| 1777984528 | 28.33° C | 35% | 1006.6 hPa | - | 1.34 m/s, 159° | - | - |
| 1777984232 | 28.33° C | 35% | 1006.7 hPa | - | 2.68 m/s, 179° | - | - |
| 1777983936 | 28.89° C | 32% | 1006.7 hPa | - | 2.24 m/s, 167° | - | - |
* Rain since midnight (hover to see other rain measurements)
** Current wind speed in m/s (hover to see current wind gust speed)